Terminal Aerodrome Forecast
Issued by NWS Huntsville, AL

Home | Current Version | Previous Version | Text Only | Print | Product List | Glossary On
Versions: 1 2 3 4 5 6 7 8 9 10 11 12 13
000
FTUS44 KHUN 051739
TAFHSV
TAF
KHSV 051739Z 0518/0618 07005KT 5SM -SHRA BR OVC015
     FM052100 09010G15KT 6SM SHRA OVC025
     FM060100 12010G15KT 5SM SHRA OVC015
     FM060400 14011KT 5SM -TSRA OVC009CB
      TEMPO 0605/0609 VRB15G25KT 2SM TSRA BR OVC005CB
     FM061000 23008KT 4SM SHRA BR OVC007
      TEMPO 0611/0615 2SM -SHRA OVC004=

USA.gov is the U.S. government's official web portal to all federal, state and local government web resources and services.